Time;durP1;ratioP1;P1;durP2;ratioP2;P2;SDS_P1;SDS_P2;PMS_P1;PMS_P2;Temp;Humidity;BMP_temperature;BMP_pressure;BME280_temperature;BME280_humidity;BME280_pressure;Samples;Min_cycle;Max_cycle;Signal;HPM_P1;HPM_P2
2022/03/18 00:02:22;;;;;;;11.65;4.57;;;3.60;99.90;;;;;;5103388;28;20078;-81
2022/03/18 00:04:52;;;;;;;14.73;5.10;;;3.60;99.90;;;;;;5103686;28;20049;-81
2022/03/18 00:07:20;;;;;;;13.52;4.60;;;3.60;99.90;;;;;;5120049;28;20542;-81
2022/03/18 00:09:50;;;;;;;13.20;4.70;;;4.20;99.90;;;;;;5105581;27;20058;-81
2022/03/18 00:12:16;;;;;;;14.48;4.55;;;3.70;99.90;;;;;;5090246;27;20103;-81
2022/03/18 00:14:42;;;;;;;13.02;4.68;;;3.60;99.90;;;;;;5090365;27;20081;-81
2022/03/18 00:17:10;;;;;;;14.48;5.18;;;3.80;99.90;;;;;;5123977;27;20103;-81
2022/03/18 00:19:38;;;;;;;14.30;5.00;;;3.60;99.90;;;;;;5124288;27;20062;-81
2022/03/18 00:22:05;;;;;;;13.52;5.07;;;3.60;99.90;;;;;;5107125;27;20111;-81
2022/03/18 00:24:34;;;;;;;14.85;5.25;;;3.60;99.90;;;;;;5090108;27;20035;-81
2022/03/18 00:27:01;;;;;;;12.95;5.32;;;3.60;99.90;;;;;;5106505;27;20058;-81
2022/03/18 00:29:27;;;;;;;14.25;5.15;;;3.60;99.90;;;;;;5123848;27;20038;-81
2022/03/18 00:31:53;;;;;;;16.30;5.38;;;3.60;99.90;;;;;;5089750;27;20039;-81
2022/03/18 00:34:19;;;;;;;17.35;5.85;;;3.60;99.90;;;;;;5107128;27;20035;-81
2022/03/18 00:36:45;;;;;;;13.13;4.90;;;3.50;99.90;;;;;;5106230;27;20035;-81
2022/03/18 00:39:11;;;;;;;12.73;5.10;;;3.50;99.90;;;;;;5106682;27;20039;-81
2022/03/18 00:41:37;;;;;;;13.32;5.30;;;3.50;99.90;;;;;;5102335;27;20038;-81
2022/03/18 00:44:03;;;;;;;13.00;5.00;;;3.50;99.90;;;;;;5093053;27;20451;-81
2022/03/18 00:46:29;;;;;;;12.30;4.95;;;3.50;99.90;;;;;;5144101;27;20034;-81
2022/03/18 00:54:23;;;;;;;14.32;5.20;;;3.50;99.90;;;;;;5144458;27;20046;-81
2022/03/18 00:56:49;;;;;;;13.35;5.63;;;3.40;99.90;;;;;;5092825;27;20038;-81
2022/03/18 00:59:15;;;;;;;12.25;4.63;;;3.50;99.90;;;;;;5126558;27;20046;-81
2022/03/18 01:01:41;;;;;;;13.07;4.57;;;3.30;99.90;;;;;;5109930;27;20039;-81
2022/03/18 01:04:08;;;;;;;13.13;5.10;;;3.30;99.90;;;;;;5127106;27;20059;-81
2022/03/18 01:06:35;;;;;;;12.63;5.00;;;3.40;99.90;;;;;;5142872;27;20050;-81
2022/03/18 01:09:02;;;;;;;11.80;5.25;;;3.50;99.90;;;;;;5110126;27;20397;-81
2022/03/18 01:11:29;;;;;;;12.48;5.15;;;3.50;99.90;;;;;;5125585;27;20046;-81
2022/03/18 01:13:55;;;;;;;11.13;4.90;;;3.40;99.90;;;;;;5112432;27;20060;-81
2022/03/18 01:16:21;;;;;;;11.23;4.50;;;3.70;99.90;;;;;;5106416;27;20485;-81
2022/03/18 01:18:47;;;;;;;11.27;4.45;;;3.20;99.90;;;;;;5106160;27;20043;-81
2022/03/18 01:21:12;;;;;;;12.13;4.95;;;3.30;99.90;;;;;;5139775;27;20035;-81
2022/03/18 01:23:38;;;;;;;9.85;4.38;;;3.20;99.90;;;;;;5105602;27;20049;-81
2022/03/18 01:26:04;;;;;;;11.55;4.50;;;3.20;99.90;;;;;;5105664;27;20088;-81
2022/03/18 01:28:30;;;;;;;10.75;4.55;;;3.10;99.90;;;;;;5105204;27;20039;-81
2022/03/18 01:30:57;;;;;;;13.30;5.20;;;3.10;99.90;;;;;;5105258;27;20133;-81
2022/03/18 01:33:22;;;;;;;12.50;4.90;;;3.00;99.90;;;;;;5105251;27;20031;-81
2022/03/18 01:35:48;;;;;;;14.75;5.65;;;2.90;99.90;;;;;;5088735;27;20176;-81
2022/03/18 01:38:14;;;;;;;11.63;4.95;;;2.80;99.90;;;;;;5088657;27;20035;-81
2022/03/18 01:40:40;;;;;;;12.85;5.55;;;2.80;99.90;;;;;;5105260;27;20035;-81
2022/03/18 01:43:10;;;;;;;17.13;5.45;;;2.70;99.90;;;;;;5088436;27;20420;-81
2022/03/18 01:45:36;;;;;;;14.27;6.03;;;2.70;99.90;;;;;;5105901;27;20130;-81
2022/03/18 01:48:02;;;;;;;17.75;6.20;;;2.60;99.90;;;;;;5105777;27;20570;-81
2022/03/18 01:50:28;;;;;;;13.20;5.60;;;2.60;99.90;;;;;;5105144;27;20047;-81
2022/03/18 01:52:54;;;;;;;15.15;6.07;;;2.60;99.90;;;;;;5087114;27;20035;-81
2022/03/18 01:55:21;;;;;;;15.50;6.35;;;2.50;99.90;;;;;;5087903;27;20027;-81
2022/03/18 01:57:47;;;;;;;14.95;6.30;;;2.80;99.90;;;;;;5105122;27;20046;-81
2022/03/18 02:00:14;;;;;;;16.25;6.53;;;2.50;99.90;;;;;;5088652;27;20046;-81
2022/03/18 02:02:39;;;;;;;17.15;7.07;;;2.50;99.90;;;;;;5110863;27;20072;-81
2022/03/18 02:05:06;;;;;;;16.13;6.72;;;2.50;99.90;;;;;;5087512;27;20039;-81
2022/03/18 02:07:32;;;;;;;15.90;6.88;;;2.50;99.90;;;;;;5120537;27;20042;-81
2022/03/18 02:09:58;;;;;;;16.98;7.50;;;2.50;99.90;;;;;;5121387;27;20050;-81
2022/03/18 02:12:24;;;;;;;15.90;7.25;;;2.70;99.90;;;;;;5117721;28;20177;-81
2022/03/18 02:14:50;;;;;;;16.65;7.22;;;2.50;99.90;;;;;;5118390;28;20067;-81
2022/03/18 02:17:17;;;;;;;19.85;7.70;;;2.50;99.90;;;;;;5102132;28;20031;-81
2022/03/18 02:19:44;;;;;;;18.65;7.70;;;2.50;99.90;;;;;;5101017;28;20518;-81
2022/03/18 02:22:12;;;;;;;17.02;7.57;;;2.60;99.90;;;;;;5100272;28;20046;-81
2022/03/18 02:24:39;;;;;;;15.75;7.40;;;2.50;99.90;;;;;;5101564;28;20075;-81
2022/03/18 02:27:05;;;;;;;15.13;6.80;;;2.50;99.90;;;;;;5101069;28;20048;-81
2022/03/18 02:29:32;;;;;;;18.05;7.93;;;2.50;99.90;;;;;;5101007;28;20047;-81
2022/03/18 02:31:57;;;;;;;16.05;7.78;;;3.00;99.90;;;;;;5100606;28;20044;-81
2022/03/18 02:34:23;;;;;;;20.77;8.35;;;2.60;99.90;;;;;;5100339;28;20425;-81
2022/03/18 02:36:50;;;;;;;17.63;8.32;;;2.60;99.90;;;;;;5100283;28;20042;-80
2022/03/18 02:39:16;;;;;;;14.70;6.88;;;2.60;99.90;;;;;;5100416;28;20039;-80
2022/03/18 02:41:42;;;;;;;18.65;7.55;;;3.10;99.90;;;;;;5117932;28;20431;-80
2022/03/18 02:44:08;;;;;;;19.25;7.70;;;2.60;99.90;;;;;;5084020;28;20043;-80
2022/03/18 02:46:34;;;;;;;17.40;7.75;;;2.60;99.90;;;;;;5084035;28;20437;-80
2022/03/18 02:49:01;;;;;;;16.90;7.45;;;2.90;99.90;;;;;;5117726;28;20039;-80
2022/03/18 02:51:27;;;;;;;16.83;7.40;;;3.20;99.90;;;;;;5117554;28;20276;-80
2022/03/18 02:53:54;;;;;;;15.43;7.57;;;2.70;99.90;;;;;;5100924;28;20035;-80
2022/03/18 02:56:20;;;;;;;18.52;7.90;;;2.70;99.90;;;;;;5100457;28;20409;-80
2022/03/18 02:58:46;;;;;;;18.50;7.60;;;3.00;99.90;;;;;;5101414;28;20547;-80
2022/03/18 03:01:12;;;;;;;16.08;7.18;;;2.70;99.90;;;;;;5084478;28;20073;-80
2022/03/18 03:03:38;;;;;;;17.50;7.75;;;3.40;99.90;;;;;;5100838;28;20063;-80
2022/03/18 03:08:48;;;;;;;20.80;7.45;;;2.70;99.90;;;;;;5103106;28;20180;-80
2022/03/18 03:11:14;;;;;;;15.85;7.18;;;2.60;99.90;;;;;;5067815;28;20089;-80
2022/03/18 03:13:40;;;;;;;14.32;6.97;;;2.60;99.90;;;;;;5121631;27;20074;-80
2022/03/18 03:16:06;;;;;;;19.60;7.55;;;2.80;99.90;;;;;;5079213;27;20034;-80
2022/03/18 03:18:32;;;;;;;13.43;6.40;;;2.60;99.90;;;;;;5121538;27;20084;-80
2022/03/18 03:20:58;;;;;;;13.55;6.35;;;2.60;99.90;;;;;;5121043;27;20043;-80
2022/03/18 03:23:25;;;;;;;13.20;6.30;;;2.60;99.90;;;;;;5087086;28;20043;-80
2022/03/18 03:25:52;;;;;;;15.07;6.85;;;3.00;99.90;;;;;;5087492;28;20035;-80
2022/03/18 03:28:18;;;;;;;14.98;6.80;;;2.60;99.90;;;;;;5086918;28;20118;-80
2022/03/18 03:30:44;;;;;;;19.80;7.93;;;2.70;99.90;;;;;;5071216;28;20069;-80
2022/03/18 03:33:10;;;;;;;15.88;7.60;;;2.90;99.90;;;;;;5087318;28;20038;-80
2022/03/18 03:35:37;;;;;;;19.67;7.65;;;3.40;99.90;;;;;;5087429;28;20505;-80
2022/03/18 03:38:04;;;;;;;21.15;7.75;;;2.60;99.90;;;;;;5120763;28;20034;-80
2022/03/18 03:40:30;;;;;;;18.85;7.93;;;2.60;99.90;;;;;;5070355;28;20039;-80
2022/03/18 03:42:56;;;;;;;16.50;7.70;;;2.60;99.90;;;;;;5120505;28;20043;-80
2022/03/18 03:45:21;;;;;;;16.38;7.82;;;2.60;99.90;;;;;;5123233;27;20129;-80
2022/03/18 03:47:47;;;;;;;17.08;7.25;;;3.30;99.90;;;;;;5124513;27;20039;-80
2022/03/18 03:50:13;;;;;;;15.82;7.70;;;2.50;99.90;;;;;;5090697;27;20087;-80
2022/03/18 03:52:40;;;;;;;16.70;7.53;;;2.60;99.90;;;;;;5123780;27;20104;-80
2022/03/18 03:55:07;;;;;;;15.85;8.05;;;2.60;99.90;;;;;;5124517;27;20392;-80
2022/03/18 03:57:33;;;;;;;17.40;7.32;;;2.60;99.90;;;;;;5124958;27;20039;-80
2022/03/18 03:59:59;;;;;;;19.52;7.70;;;2.60;99.90;;;;;;5090587;27;20047;-80
2022/03/18 04:02:27;;;;;;;17.02;8.38;;;3.10;99.90;;;;;;5090761;27;20038;-80
2022/03/18 04:04:53;;;;;;;18.85;8.35;;;2.60;99.90;;;;;;5091546;27;20409;-80
2022/03/18 04:07:19;;;;;;;17.08;8.50;;;2.60;99.90;;;;;;5090429;27;20043;-80
2022/03/18 04:09:49;;;;;;;16.95;8.00;;;2.60;99.90;;;;;;5090767;27;20049;-80
2022/03/18 04:12:15;;;;;;;16.55;8.15;;;2.60;99.90;;;;;;5088281;28;20051;-80
2022/03/18 04:14:41;;;;;;;17.73;7.90;;;2.50;99.90;;;;;;5104478;28;20065;-80
2022/03/18 04:17:07;;;;;;;18.27;8.30;;;2.60;99.90;;;;;;5104172;28;20045;-80
2022/03/18 04:19:32;;;;;;;17.10;8.48;;;2.50;99.90;;;;;;5071514;28;20051;-80
2022/03/18 04:21:59;;;;;;;19.20;8.73;;;2.50;99.90;;;;;;5103982;28;20387;-80
2022/03/18 04:24:24;;;;;;;17.27;8.18;;;2.50;99.90;;;;;;5121477;28;20046;-80
2022/03/18 04:26:50;;;;;;;19.50;8.45;;;2.50;99.90;;;;;;5070615;28;20043;-80
2022/03/18 04:29:16;;;;;;;21.70;8.57;;;2.50;99.90;;;;;;5104471;28;20103;-80
2022/03/18 04:31:42;;;;;;;19.40;8.55;;;2.60;99.90;;;;;;5070671;28;20131;-80
2022/03/18 04:34:08;;;;;;;17.15;8.45;;;2.50;99.90;;;;;;5105191;28;20032;-80
2022/03/18 04:36:34;;;;;;;20.13;8.38;;;2.50;99.90;;;;;;5086451;28;20047;-80
2022/03/18 04:39:01;;;;;;;19.55;8.70;;;2.60;99.90;;;;;;5087051;28;20060;-80
2022/03/18 04:41:27;;;;;;;12.23;6.82;;;2.60;99.90;;;;;;5115837;27;20130;-80
2022/03/18 04:43:53;;;;;;;18.48;8.88;;;2.60;99.90;;;;;;5107890;27;20100;-80
2022/03/18 04:46:20;;;;;;;15.32;7.63;;;2.60;99.90;;;;;;5142164;27;20039;-80
2022/03/18 04:48:46;;;;;;;16.45;8.25;;;2.60;99.90;;;;;;5141592;27;20056;-80
2022/03/18 04:51:12;;;;;;;15.88;8.50;;;2.70;99.90;;;;;;5123946;27;20130;-80
2022/03/18 04:53:40;;;;;;;17.98;8.57;;;2.70;99.90;;;;;;5105953;27;20047;-80
2022/03/18 04:57:15;;;;;;;17.15;8.52;;;2.70;99.90;;;;;;5123445;27;20399;-80
2022/03/18 04:58:52;;;;;;;15.07;7.97;;;2.70;99.90;;;;;;5126641;27;20043;-80
2022/03/18 05:01:20;;;;;;;15.98;8.13;;;2.60;99.90;;;;;;5124500;27;20049;-80
2022/03/18 05:03:46;;;;;;;16.92;7.82;;;2.50;99.90;;;;;;5141313;27;20528;-80
2022/03/18 05:06:12;;;;;;;17.38;8.23;;;2.50;99.90;;;;;;5124535;27;20043;-80
2022/03/18 05:08:38;;;;;;;14.95;8.10;;;2.50;99.90;;;;;;5106829;27;20039;-80
2022/03/18 05:11:04;;;;;;;18.02;8.45;;;2.50;99.90;;;;;;5123806;27;20061;-80
2022/03/18 05:13:29;;;;;;;16.95;7.88;;;2.80;99.90;;;;;;5123202;27;20055;-80
2022/03/18 05:15:56;;;;;;;16.67;7.60;;;2.50;99.90;;;;;;5107061;27;20039;-80
2022/03/18 05:18:22;;;;;;;15.98;7.40;;;2.50;99.90;;;;;;5089446;27;20064;-80
2022/03/18 05:20:48;;;;;;;20.85;8.95;;;2.50;99.90;;;;;;5130443;27;20513;-81
2022/03/18 05:23:14;;;;;;;16.77;8.25;;;2.50;99.90;;;;;;5124664;27;20039;-81
2022/03/18 05:25:40;;;;;;;15.32;7.78;;;2.50;99.90;;;;;;5108885;27;20076;-81
2022/03/18 05:28:10;;;;;;;15.32;7.35;;;2.50;99.90;;;;;;5112009;28;20048;-81
2022/03/18 05:30:37;;;;;;;15.38;7.72;;;2.90;99.90;;;;;;5101612;28;20493;-82
2022/03/18 05:33:03;;;;;;;14.52;7.57;;;2.30;99.90;;;;;;5127529;27;20073;-80
2022/03/18 05:35:29;;;;;;;14.93;7.13;;;2.50;99.90;;;;;;5111005;28;20040;-80
2022/03/18 05:37:54;;;;;;;15.98;7.18;;;3.00;99.90;;;;;;5123238;28;20049;-81
2022/03/18 05:40:21;;;;;;;11.65;6.50;;;2.50;99.90;;;;;;5098130;28;20379;-80
2022/03/18 05:42:47;;;;;;;12.77;6.53;;;2.20;99.90;;;;;;5120484;27;20047;-81
2022/03/18 05:45:14;;;;;;;14.82;6.60;;;2.20;99.90;;;;;;5120039;28;20050;-81
2022/03/18 05:47:40;;;;;;;18.02;8.30;;;2.20;99.90;;;;;;5126830;28;20052;-81
2022/03/18 05:50:07;;;;;;;15.15;7.80;;;2.20;99.90;;;;;;5107004;28;20039;-80
2022/03/18 05:52:34;;;;;;;14.23;7.60;;;2.20;99.90;;;;;;5096678;28;20045;-81
2022/03/18 05:55:00;;;;;;;14.02;7.20;;;2.10;99.90;;;;;;5111968;28;20036;-81
2022/03/18 05:57:27;;;;;;;15.43;8.10;;;2.10;99.90;;;;;;5061842;28;20127;-81
2022/03/18 05:59:57;;;;;;;14.88;7.45;;;2.10;99.90;;;;;;5096172;28;20039;-81
2022/03/18 06:02:23;;;;;;;15.30;7.78;;;2.00;99.90;;;;;;5096582;28;20036;-81
2022/03/18 06:04:49;;;;;;;17.00;8.63;;;2.10;99.90;;;;;;5096232;28;20142;-81
2022/03/18 06:07:15;;;;;;;14.38;7.47;;;2.30;99.90;;;;;;5094020;28;20043;-81
2022/03/18 06:12:26;;;;;;;15.95;8.38;;;2.10;99.90;;;;;;5098529;28;20154;-81
2022/03/18 06:14:54;;;;;;;13.60;8.00;;;2.10;99.90;;;;;;5113644;28;20093;-81
2022/03/18 06:17:20;;;;;;;14.90;7.95;;;2.30;99.90;;;;;;5096629;28;20040;-81
2022/03/18 06:19:46;;;;;;;15.43;8.80;;;2.30;99.90;;;;;;5079553;28;20039;-81
2022/03/18 06:22:12;;;;;;;20.83;9.27;;;2.20;99.90;;;;;;5112791;28;20128;-81
2022/03/18 06:24:38;;;;;;;17.52;10.02;;;2.20;99.90;;;;;;5096744;28;20087;-81
2022/03/18 06:27:04;;;;;;;18.23;9.85;;;2.10;99.90;;;;;;5112526;28;20100;-81
2022/03/18 06:29:31;;;;;;;16.80;9.10;;;2.20;99.90;;;;;;5113072;28;20048;-81
2022/03/18 06:32:01;;;;;;;17.45;9.60;;;2.20;99.90;;;;;;5079096;28;20110;-81
2022/03/18 06:34:27;;;;;;;17.23;10.85;;;2.40;99.90;;;;;;5113665;28;20538;-81
2022/03/18 06:36:55;;;;;;;14.65;9.27;;;2.40;99.90;;;;;;5094956;28;20122;-81
2022/03/18 06:39:25;;;;;;;18.52;9.65;;;3.10;99.90;;;;;;5112921;28;20027;-81
2022/03/18 06:41:51;;;;;;;16.23;10.05;;;2.80;99.90;;;;;;5112442;28;20043;-81
2022/03/18 06:44:18;;;;;;;18.45;9.77;;;3.50;99.90;;;;;;5096079;28;20090;-81
2022/03/18 06:46:44;;;;;;;16.80;9.75;;;4.40;99.90;;;;;;5112802;28;20043;-81
2022/03/18 06:49:10;;;;;;;13.82;8.52;;;5.10;99.90;;;;;;5095863;28;20035;-81
2022/03/18 06:51:37;;;;;;;13.20;7.82;;;5.50;99.90;;;;;;5094581;28;20192;-81
2022/03/18 06:54:04;;;;;;;10.98;6.70;;;6.50;99.90;;;;;;5079093;28;20478;-81
2022/03/18 06:56:30;;;;;;;14.05;6.57;;;6.80;99.90;;;;;;5112473;28;20040;-81
2022/03/18 06:58:57;;;;;;;12.65;6.70;;;7.40;99.90;;;;;;5095695;28;20032;-81
2022/03/18 07:01:23;;;;;;;13.35;6.68;;;7.80;99.90;;;;;;5112634;28;20040;-81
2022/03/18 07:03:49;;;;;;;14.30;6.90;;;7.90;99.90;;;;;;5095966;28;20043;-81
2022/03/18 07:06:15;;;;;;;14.32;6.25;;;8.00;99.90;;;;;;5112481;28;20035;-81
2022/03/18 07:08:41;;;;;;;13.23;6.45;;;8.30;99.90;;;;;;5078043;28;20043;-81
2022/03/18 07:11:07;;;;;;;14.68;6.65;;;8.40;99.90;;;;;;5095348;28;20044;-81
2022/03/18 07:13:33;;;;;;;14.52;6.68;;;8.40;99.90;;;;;;5095249;28;20047;-81
2022/03/18 07:17:55;;;;;;;14.52;6.78;;;8.50;99.90;;;;;;5112548;28;20097;-81
2022/03/18 07:18:45;;;;;;;12.23;7.45;;;8.50;99.90;;;;;;5097540;28;20082;-81
2022/03/18 07:21:11;;;;;;;14.90;8.00;;;8.20;99.90;;;;;;5112255;28;20082;-81
2022/03/18 07:23:37;;;;;;;15.05;8.23;;;8.00;99.90;;;;;;5094430;28;20459;-81
2022/03/18 07:26:03;;;;;;;16.63;8.35;;;7.80;99.90;;;;;;5095291;28;20043;-81
2022/03/18 07:28:28;;;;;;;14.52;8.35;;;7.80;99.90;;;;;;5095100;28;20559;-81
2022/03/18 07:30:54;;;;;;;16.20;9.40;;;7.60;99.90;;;;;;5104254;28;20074;-81
2022/03/18 07:33:20;;;;;;;17.20;9.25;;;7.70;99.90;;;;;;5112037;28;20083;-81
2022/03/18 07:35:45;;;;;;;20.10;9.20;;;7.70;99.90;;;;;;5112333;28;20128;-81
2022/03/18 07:38:11;;;;;;;17.52;9.52;;;7.70;99.90;;;;;;5111031;28;20035;-81
2022/03/18 07:40:38;;;;;;;19.83;10.40;;;7.80;99.90;;;;;;5078554;28;20043;-81
2022/03/18 07:43:05;;;;;;;17.05;9.90;;;7.60;99.90;;;;;;5111941;28;20036;-81
2022/03/18 07:45:34;;;;;;;18.42;9.98;;;7.70;99.90;;;;;;5112265;28;20054;-81
2022/03/18 07:48:02;;;;;;;19.55;10.93;;;7.80;99.90;;;;;;5111909;28;20069;-81
2022/03/18 07:50:29;;;;;;;19.52;9.93;;;8.10;99.90;;;;;;5095180;28;20042;-81
2022/03/18 07:52:58;;;;;;;17.48;10.70;;;8.20;99.90;;;;;;5094010;28;20035;-81
2022/03/18 07:55:27;;;;;;;19.38;11.02;;;8.40;99.90;;;;;;5111911;28;20036;-81
2022/03/18 07:57:54;;;;;;;18.98;11.13;;;8.50;99.90;;;;;;5095211;28;20074;-81
2022/03/18 08:00:20;;;;;;;18.95;11.18;;;8.60;99.90;;;;;;5111835;28;20039;-81
2022/03/18 08:02:48;;;;;;;16.75;11.18;;;8.60;99.90;;;;;;5111737;28;20050;-81
2022/03/18 08:05:15;;;;;;;18.10;12.63;;;8.60;99.90;;;;;;5094953;28;20051;-81
2022/03/18 08:07:41;;;;;;;17.08;11.98;;;8.70;99.90;;;;;;5093954;28;20036;-81
2022/03/18 08:10:09;;;;;;;18.98;12.23;;;8.70;99.90;;;;;;5111754;28;20078;-81
2022/03/18 08:12:36;;;;;;;19.77;11.88;;;8.80;99.90;;;;;;5111496;28;20075;-81
2022/03/18 08:15:10;;;;;;;21.42;12.10;;;8.90;99.90;;;;;;5078372;28;20436;-81
2022/03/18 08:17:37;;;;;;;18.60;12.82;;;9.10;99.90;;;;;;5094918;28;20035;-81
2022/03/18 08:20:04;;;;;;;18.25;11.80;;;9.20;99.90;;;;;;5094986;28;20075;-81
2022/03/18 08:22:30;;;;;;;17.90;11.90;;;9.30;99.90;;;;;;5093976;28;20069;-80
2022/03/18 08:24:55;;;;;;;19.48;11.70;;;9.30;99.90;;;;;;5111654;28;20035;-80
2022/03/18 08:27:21;;;;;;;19.00;11.93;;;9.40;99.90;;;;;;5094518;28;20040;-80
2022/03/18 08:29:47;;;;;;;20.27;11.40;;;9.40;99.90;;;;;;5094644;28;20454;-80
2022/03/18 08:32:14;;;;;;;17.25;10.73;;;9.50;99.90;;;;;;5115136;28;20505;-80
2022/03/18 08:34:41;;;;;;;19.95;11.55;;;9.40;99.90;;;;;;5115615;28;20364;-80
2022/03/18 08:37:07;;;;;;;17.35;11.50;;;9.40;99.90;;;;;;5097600;28;20039;-80
2022/03/18 08:39:33;;;;;;;18.95;11.50;;;9.40;99.90;;;;;;5098588;28;20032;-80
2022/03/18 08:41:59;;;;;;;19.83;12.55;;;9.40;99.90;;;;;;5097954;28;20040;-80
2022/03/18 08:44:25;;;;;;;20.80;12.25;;;9.50;99.90;;;;;;5098220;28;20040;-80
2022/03/18 08:46:51;;;;;;;20.52;12.00;;;9.60;99.90;;;;;;5114969;28;20081;-80
2022/03/18 08:49:17;;;;;;;17.35;11.18;;;10.10;99.90;;;;;;5081185;28;20225;-80
2022/03/18 08:51:42;;;;;;;20.65;12.07;;;10.50;99.90;;;;;;5097020;28;20083;-80
2022/03/18 08:54:08;;;;;;;18.27;11.30;;;10.60;99.90;;;;;;5097929;28;20084;-80
2022/03/18 08:56:34;;;;;;;18.50;11.55;;;10.90;99.90;;;;;;5114625;28;20039;-80
2022/03/18 08:59:03;;;;;;;18.75;11.40;;;11.10;99.90;;;;;;5081486;28;20100;-80
2022/03/18 09:01:29;;;;;;;17.88;11.88;;;11.50;99.90;;;;;;5114533;28;20047;-80
2022/03/18 09:03:55;;;;;;;17.88;11.45;;;11.70;99.90;;;;;;5115142;28;20046;-80
2022/03/18 09:06:21;;;;;;;21.02;11.98;;;11.80;99.90;;;;;;5114142;28;20134;-80
2022/03/18 09:08:46;;;;;;;18.88;11.40;;;11.80;99.90;;;;;;5097612;28;20046;-80
2022/03/18 09:11:12;;;;;;;18.83;11.55;;;11.90;99.90;;;;;;5080721;28;20046;-80
2022/03/18 09:13:38;;;;;;;18.23;11.18;;;11.90;99.90;;;;;;5097489;28;20044;-80
2022/03/18 09:16:05;;;;;;;18.85;11.95;;;12.40;99.90;;;;;;5080878;28;20046;-80
2022/03/18 09:18:31;;;;;;;19.70;11.60;;;12.40;99.90;;;;;;5114656;28;20442;-80
2022/03/18 09:20:57;;;;;;;16.38;11.05;;;12.60;99.50;;;;;;5114371;28;20132;-80
2022/03/18 09:23:23;;;;;;;18.90;10.98;;;13.10;99.30;;;;;;5096586;28;20047;-80
2022/03/18 09:25:50;;;;;;;20.23;11.15;;;13.20;98.40;;;;;;5114586;28;20371;-80
2022/03/18 09:28:16;;;;;;;18.90;11.07;;;13.20;97.80;;;;;;5114070;28;20035;-80
2022/03/18 09:30:42;;;;;;;16.17;10.65;;;13.70;97.90;;;;;;5114256;28;20559;-80
2022/03/18 09:33:08;;;;;;;18.95;11.20;;;13.80;97.60;;;;;;5097274;28;20067;-80
2022/03/18 09:35:35;;;;;;;19.17;10.63;;;13.70;94.80;;;;;;5080742;28;20039;-80
2022/03/18 09:38:01;;;;;;;25.13;11.27;;;13.50;95.70;;;;;;5113417;28;20039;-80
2022/03/18 09:40:27;;;;;;;22.02;11.25;;;13.20;96.40;;;;;;5080225;28;20040;-80
2022/03/18 09:42:57;;;;;;;22.38;12.20;;;12.90;97.60;;;;;;5096527;28;20066;-80
2022/03/18 09:45:25;;;;;;;20.48;11.15;;;12.80;98.60;;;;;;5113987;28;20043;-80
2022/03/18 09:47:51;;;;;;;18.98;11.13;;;13.10;98.10;;;;;;5113737;28;20124;-80
2022/03/18 09:50:18;;;;;;;21.55;11.15;;;12.80;98.10;;;;;;5113743;28;20048;-80
2022/03/18 09:52:44;;;;;;;18.98;10.60;;;12.90;97.80;;;;;;5096085;28;20044;-80
2022/03/18 09:55:10;;;;;;;18.55;10.63;;;13.00;98.50;;;;;;5096783;28;20044;-79
2022/03/18 09:57:36;;;;;;;21.33;10.95;;;13.20;97.30;;;;;;5096712;28;20039;-79
2022/03/18 10:00:02;;;;;;;20.02;11.55;;;13.20;97.50;;;;;;5096714;28;20383;-79
2022/03/18 10:02:30;;;;;;;20.13;11.73;;;13.10;97.90;;;;;;5100898;28;20036;-79
2022/03/18 10:05:01;;;;;;;21.20;11.77;;;13.10;99.00;;;;;;5079723;28;20092;-79
2022/03/18 10:07:28;;;;;;;19.58;10.07;;;13.20;96.40;;;;;;5095901;28;20582;-79
2022/03/18 10:10:11;;;;;;;20.75;11.13;;;13.30;97.00;;;;;;5113456;28;20040;-79
2022/03/18 10:12:39;;;;;;;21.15;12.35;;;13.40;96.30;;;;;;5113189;28;20055;-79
2022/03/18 10:15:13;;;;;;;19.83;11.18;;;13.40;96.10;;;;;;5113293;28;20073;-79
2022/03/18 10:17:52;;;;;;;21.92;10.52;;;13.50;97.20;;;;;;5096251;28;20042;-79
2022/03/18 10:20:38;;;;;;;20.88;11.13;;;13.50;95.80;;;;;;5113293;28;20126;-79
2022/03/18 10:23:16;;;;;;;19.77;11.15;;;13.50;96.80;;;;;;5112282;28;20035;-79
2022/03/18 10:25:55;;;;;;;21.15;10.90;;;13.30;97.90;;;;;;5113209;28;20101;-79
2022/03/18 10:28:39;;;;;;;21.52;11.63;;;13.60;96.60;;;;;;5096168;28;20039;-79
2022/03/18 10:31:25;;;;;;;21.33;10.85;;;13.40;96.10;;;;;;5113057;28;20035;-79
2022/03/18 10:37:04;;;;;;;20.52;11.82;;;13.60;97.10;;;;;;5111926;28;20039;-79
2022/03/18 10:39:39;;;;;;;20.33;11.63;;;13.80;98.30;;;;;;5113037;28;20035;-79
2022/03/18 10:42:10;;;;;;;19.08;11.43;;;14.00;97.50;;;;;;5108845;28;20118;-79
2022/03/18 10:44:49;;;;;;;18.70;11.68;;;14.20;97.70;;;;;;5095956;28;20040;-79
2022/03/18 10:47:39;;;;;;;20.90;11.63;;;14.40;95.10;;;;;;5112930;28;20390;-79
2022/03/18 10:50:11;;;;;;;19.13;10.93;;;14.50;96.90;;;;;;5112919;28;20048;-79
2022/03/18 10:52:38;;;;;;;18.77;10.48;;;14.50;95.80;;;;;;5111954;28;20479;-79
2022/03/18 10:55:23;;;;;;;19.33;11.50;;;14.60;94.40;;;;;;5094863;28;20047;-79
2022/03/18 10:57:54;;;;;;;19.95;10.70;;;14.70;94.90;;;;;;5095741;28;20474;-79
2022/03/18 11:00:22;;;;;;;21.60;10.50;;;14.70;93.80;;;;;;5112538;28;20043;-79
2022/03/18 11:02:49;;;;;;;19.20;10.50;;;14.70;94.80;;;;;;5095314;28;20043;-79
2022/03/18 11:05:20;;;;;;;18.73;10.65;;;14.80;94.10;;;;;;5095689;28;20074;-79
2022/03/18 11:07:52;;;;;;;21.27;11.05;;;14.90;94.30;;;;;;5094533;28;20035;-79
2022/03/18 11:13:07;;;;;;;16.98;9.77;;;15.10;93.50;;;;;;5111968;28;20254;-79
2022/03/18 11:15:36;;;;;;;18.33;10.32;;;15.20;92.80;;;;;;5112291;28;20040;-79
2022/03/18 11:18:03;;;;;;;16.13;8.88;;;15.20;92.10;;;;;;5112442;28;20153;-79
2022/03/18 11:20:32;;;;;;;18.67;9.65;;;15.30;92.70;;;;;;5112269;28;20039;-79
2022/03/18 11:22:58;;;;;;;16.65;8.80;;;15.30;92.40;;;;;;5094348;28;20047;-79
2022/03/18 11:25:26;;;;;;;17.00;8.18;;;15.40;90.70;;;;;;5112407;28;20452;-79
2022/03/18 11:27:54;;;;;;;18.45;8.40;;;15.50;87.20;;;;;;5112032;28;20043;-79
2022/03/18 11:30:34;;;;;;;14.27;6.88;;;15.30;88.00;;;;;;5098732;28;20036;-79
2022/03/18 11:33:17;;;;;;;16.75;8.00;;;15.40;85.50;;;;;;5115809;28;20039;-79
2022/03/18 11:35:49;;;;;;;15.95;8.80;;;15.20;84.40;;;;;;5132705;28;20062;-79
2022/03/18 11:38:46;;;;;;;17.60;9.20;;;15.20;88.80;;;;;;5131700;28;20035;-79
2022/03/18 11:41:14;;;;;;;17.75;9.10;;;15.30;87.00;;;;;;5111462;28;20082;-79
2022/03/18 11:43:42;;;;;;;16.90;9.10;;;15.00;90.30;;;;;;5095102;28;20039;-79
2022/03/18 11:46:28;;;;;;;16.05;7.70;;;15.10;90.70;;;;;;5111940;28;20047;-79
2022/03/18 11:49:05;;;;;;;15.60;8.30;;;15.30;84.90;;;;;;5111883;28;20053;-79
2022/03/18 11:51:42;;;;;;;12.75;7.50;;;15.30;85.10;;;;;;5077111;28;20036;-79
2022/03/18 11:54:16;;;;;;;15.18;8.05;;;15.20;86.00;;;;;;5095320;28;20390;-79
2022/03/18 11:56:50;;;;;;;11.32;6.55;;;15.20;84.40;;;;;;5094833;28;20071;-79
2022/03/18 11:59:25;;;;;;;11.40;5.80;;;15.30;86.70;;;;;;5112048;28;20036;-79
2022/03/18 12:01:52;;;;;;;12.23;6.13;;;15.50;81.20;;;;;;5114260;28;20051;-79
2022/03/18 12:04:33;;;;;;;17.17;6.40;;;15.40;79.70;;;;;;5098590;28;20095;-79
2022/03/18 12:07:24;;;;;;;13.65;6.30;;;15.10;82.50;;;;;;5118090;27;20401;-79
2022/03/18 12:09:57;;;;;;;15.73;6.80;;;15.20;81.40;;;;;;5119247;27;20076;-79
2022/03/18 12:12:49;;;;;;;14.13;7.10;;;15.30;84.50;;;;;;5136017;27;20043;-79
2022/03/18 12:15:22;;;;;;;15.05;6.90;;;15.40;81.20;;;;;;5131580;27;20043;-79
2022/03/18 12:17:51;;;;;;;14.75;7.35;;;15.30;81.20;;;;;;5136097;27;20047;-79
2022/03/18 12:20:30;;;;;;;15.65;7.57;;;15.30;82.90;;;;;;5119118;27;20039;-79
2022/03/18 12:22:57;;;;;;;15.15;7.70;;;15.30;84.30;;;;;;5135556;27;20587;-79
2022/03/18 12:25:24;;;;;;;16.42;8.35;;;15.40;84.30;;;;;;5119219;27;20180;-79
2022/03/18 12:27:51;;;;;;;12.60;8.18;;;15.60;86.30;;;;;;5135932;27;20130;-79
2022/03/18 12:30:29;;;;;;;19.08;7.03;;;15.50;85.70;;;;;;5136137;27;20435;-79
2022/03/18 12:33:03;;;;;;;10.77;4.50;;;15.50;81.10;;;;;;5135766;27;20035;-79
2022/03/18 12:35:38;;;;;;;11.50;5.03;;;15.30;79.50;;;;;;5135819;27;20062;-79
2022/03/18 12:38:18;;;;;;;13.05;5.20;;;15.10;77.30;;;;;;5118076;27;20478;-79
2022/03/18 12:40:54;;;;;;;13.32;5.18;;;15.30;79.30;;;;;;5136196;27;20500;-79
2022/03/18 12:43:20;;;;;;;11.82;4.10;;;15.30;78.70;;;;;;5136056;27;20482;-79
2022/03/18 12:45:46;;;;;;;11.63;4.38;;;15.30;75.10;;;;;;5118904;27;20049;-79
2022/03/18 12:48:18;;;;;;;12.77;4.13;;;15.20;73.30;;;;;;5135512;27;20035;-79
2022/03/18 12:50:49;;;;;;;11.82;4.85;;;15.40;73.20;;;;;;5118648;27;20039;-79
2022/03/18 12:53:33;;;;;;;12.65;4.90;;;15.50;74.30;;;;;;5134645;27;20074;-79
2022/03/18 12:56:00;;;;;;;13.02;5.35;;;15.60;74.70;;;;;;5135475;27;20035;-79
2022/03/18 12:58:27;;;;;;;12.07;5.13;;;15.60;75.20;;;;;;5118736;27;20401;-79
2022/03/18 13:00:57;;;;;;;12.07;5.72;;;15.40;71.40;;;;;;5118343;27;20085;-79
2022/03/18 13:03:29;;;;;;;14.30;5.10;;;15.30;72.10;;;;;;5119503;27;20036;-79